createdAt,value
2018-08-30T00:01:02.760Z,0.00
2018-08-30T00:02:09.217Z,0.00
2018-08-30T00:03:15.685Z,0.00
2018-08-30T00:04:22.134Z,0.00
2018-08-30T00:05:28.660Z,0.00
2018-08-30T00:06:35.053Z,0.00
2018-08-30T00:07:41.510Z,0.00
2018-08-30T00:08:47.963Z,0.00
2018-08-30T00:09:54.431Z,0.00
2018-08-30T00:11:00.882Z,0.00
2018-08-30T00:12:07.323Z,0.00
2018-08-30T00:13:13.786Z,0.00
2018-08-30T00:14:20.246Z,0.00
2018-08-30T00:15:26.717Z,0.00
2018-08-30T00:16:33.153Z,0.00
2018-08-30T00:17:39.605Z,0.00
2018-08-30T00:18:46.066Z,0.00
2018-08-30T00:19:52.512Z,0.00
2018-08-30T00:20:58.972Z,0.00
2018-08-30T00:22:05.417Z,0.00
2018-08-30T00:23:11.878Z,0.00
2018-08-30T00:24:18.337Z,0.00
2018-08-30T00:25:24.796Z,0.00
2018-08-30T00:26:31.248Z,0.00
2018-08-30T00:27:37.701Z,0.00
2018-08-30T00:28:44.656Z,0.00
2018-08-30T00:29:50.614Z,0.00
2018-08-30T00:30:57.064Z,0.00
2018-08-30T00:32:03.531Z,0.00
2018-08-30T00:33:09.980Z,0.00
2018-08-30T00:34:16.419Z,0.00
2018-08-30T00:35:22.876Z,0.00
2018-08-30T00:36:29.335Z,0.00
2018-08-30T00:37:35.773Z,0.00
2018-08-30T00:38:42.236Z,0.00
2018-08-30T00:39:48.678Z,0.00
2018-08-30T00:40:55.137Z,0.00
2018-08-30T00:42:01.598Z,0.00
2018-08-30T00:43:08.047Z,0.00
2018-08-30T00:44:14.506Z,0.00
2018-08-30T00:45:20.944Z,0.00
2018-08-30T00:46:27.405Z,0.00
2018-08-30T00:47:33.847Z,0.00
2018-08-30T00:48:40.316Z,0.00
2018-08-30T00:49:46.754Z,0.00
2018-08-30T00:50:53.190Z,0.00
2018-08-30T00:51:59.650Z,0.00
2018-08-30T00:53:06.091Z,0.00
2018-08-30T00:54:12.532Z,0.00
2018-08-30T00:55:19.004Z,0.00
2018-08-30T00:56:25.443Z,0.00
2018-08-30T00:57:31.875Z,0.00
2018-08-30T00:58:38.320Z,0.00
2018-08-30T00:59:44.757Z,0.00
2018-08-30T01:00:51.203Z,0.00
2018-08-30T01:01:57.657Z,0.00
2018-08-30T01:03:04.096Z,0.00
2018-08-30T01:04:10.531Z,0.00
2018-08-30T01:05:16.988Z,0.00
2018-08-30T01:06:23.428Z,0.00
2018-08-30T01:07:29.857Z,0.00
2018-08-30T01:08:36.303Z,0.00
2018-08-30T01:09:42.756Z,0.00
2018-08-30T01:10:49.281Z,0.00
2018-08-30T01:11:55.647Z,0.00
2018-08-30T01:13:02.080Z,0.00
2018-08-30T01:14:08.530Z,0.00
2018-08-30T01:15:14.958Z,0.00
2018-08-30T01:16:21.416Z,0.00
2018-08-30T01:17:27.848Z,0.00
2018-08-30T01:18:34.293Z,0.00
2018-08-30T01:19:40.728Z,0.00
2018-08-30T01:20:47.279Z,0.00
2018-08-30T01:21:53.628Z,0.00
2018-08-30T01:23:00.076Z,0.00
2018-08-30T01:24:06.500Z,0.00
2018-08-30T01:25:12.961Z,0.00
2018-08-30T01:26:19.400Z,0.00
2018-08-30T01:27:25.832Z,0.00
2018-08-30T01:28:32.277Z,0.00
2018-08-30T01:29:38.712Z,0.00
2018-08-30T01:30:45.146Z,0.00
2018-08-30T01:31:52.097Z,0.00
2018-08-30T01:32:58.026Z,0.00
2018-08-30T01:34:04.666Z,0.00
2018-08-30T01:35:10.913Z,0.00
2018-08-30T01:36:17.350Z,0.00
2018-08-30T01:37:23.793Z,0.00
2018-08-30T01:38:30.215Z,0.00
2018-08-30T01:39:36.661Z,0.00
2018-08-30T01:40:43.095Z,0.00
2018-08-30T01:41:49.534Z,0.00
2018-08-30T01:42:55.965Z,0.00
2018-08-30T01:44:02.402Z,0.00
2018-08-30T01:45:08.839Z,0.00
2018-08-30T01:46:15.261Z,0.00
2018-08-30T01:47:21.711Z,0.00
2018-08-30T01:48:28.635Z,0.00
2018-08-30T01:49:34.571Z,0.00
2018-08-30T01:50:40.993Z,0.00
2018-08-30T01:51:47.433Z,0.00
2018-08-30T01:52:53.860Z,0.00
2018-08-30T01:54:00.284Z,0.00
2018-08-30T01:55:06.719Z,0.00
2018-08-30T01:56:13.148Z,0.00
2018-08-30T01:57:19.576Z,0.00
2018-08-30T01:58:26.017Z,0.00
2018-08-30T01:59:32.424Z,0.00
2018-08-30T02:00:38.868Z,0.00
2018-08-30T02:01:45.285Z,0.00
2018-08-30T02:02:51.718Z,0.00
2018-08-30T02:03:58.134Z,0.00
2018-08-30T02:05:04.556Z,0.00
2018-08-30T02:06:10.980Z,0.00
2018-08-30T02:07:17.412Z,0.00
2018-08-30T02:08:23.829Z,0.00
2018-08-30T02:09:30.252Z,0.00
2018-08-30T02:10:36.682Z,0.00
2018-08-30T02:11:43.097Z,0.00
2018-08-30T02:12:49.523Z,0.00
2018-08-30T02:13:55.934Z,0.00
2018-08-30T02:15:02.862Z,0.00
2018-08-30T02:16:08.774Z,0.00
2018-08-30T02:17:15.293Z,0.00
2018-08-30T02:18:21.629Z,0.00
2018-08-30T02:19:28.047Z,0.00
2018-08-30T02:20:34.456Z,0.00
2018-08-30T02:21:40.896Z,0.00
2018-08-30T02:22:47.314Z,0.00
2018-08-30T02:23:53.730Z,0.00
2018-08-30T02:25:00.147Z,0.00
2018-08-30T02:26:06.557Z,0.00
2018-08-30T02:27:13.004Z,0.00
2018-08-30T02:28:19.417Z,0.00
2018-08-30T02:29:25.808Z,0.00
2018-08-30T02:30:32.234Z,0.00
2018-08-30T02:31:38.641Z,0.00
2018-08-30T02:32:45.076Z,0.00
2018-08-30T02:33:51.490Z,0.00
2018-08-30T02:34:57.891Z,0.00
2018-08-30T02:36:05.317Z,0.00
2018-08-30T02:37:10.737Z,0.00
2018-08-30T02:38:17.268Z,0.00
2018-08-30T02:39:23.581Z,0.00
2018-08-30T02:40:29.984Z,0.00
2018-08-30T02:41:36.410Z,0.00
2018-08-30T02:42:42.824Z,0.00
2018-08-30T02:43:49.307Z,0.00
2018-08-30T02:44:55.659Z,0.00
2018-08-30T02:46:02.074Z,0.00
2018-08-30T02:47:08.983Z,0.00
2018-08-30T02:48:14.896Z,0.00
2018-08-30T02:49:21.332Z,0.00
2018-08-30T02:50:27.728Z,0.00
2018-08-30T02:51:34.152Z,0.00
2018-08-30T02:52:40.559Z,0.00
2018-08-30T02:53:46.974Z,0.00
2018-08-30T02:54:53.403Z,0.00
2018-08-30T02:55:59.813Z,0.00
2018-08-30T02:57:06.226Z,0.00
2018-08-30T02:58:12.635Z,0.00
2018-08-30T02:59:19.070Z,0.00
2018-08-30T03:00:25.467Z,0.00
2018-08-30T03:01:31.879Z,0.00
2018-08-30T03:02:38.288Z,0.00
2018-08-30T03:03:44.692Z,0.00
2018-08-30T03:04:51.119Z,0.00
2018-08-30T03:05:57.515Z,0.00
2018-08-30T03:07:03.927Z,0.00
2018-08-30T03:08:10.338Z,0.00
2018-08-30T03:09:16.766Z,0.00
2018-08-30T03:10:23.280Z,0.00
2018-08-30T03:11:29.588Z,0.00
2018-08-30T03:12:35.993Z,0.00
2018-08-30T03:13:42.404Z,0.00
2018-08-30T03:14:48.816Z,0.00
2018-08-30T03:15:55.214Z,0.00
2018-08-30T03:17:01.625Z,0.00
2018-08-30T03:18:08.028Z,0.00
2018-08-30T03:19:14.445Z,0.00
2018-08-30T03:20:20.845Z,0.00
2018-08-30T03:21:27.250Z,0.00
2018-08-30T03:22:33.658Z,0.00
2018-08-30T03:23:40.063Z,0.00
2018-08-30T03:24:46.473Z,0.00
2018-08-30T03:25:52.883Z,0.00
2018-08-30T03:26:59.279Z,0.00
2018-08-30T03:28:05.695Z,0.00
2018-08-30T03:29:12.116Z,0.00
2018-08-30T03:30:18.552Z,0.00
2018-08-30T03:31:24.925Z,0.00
2018-08-30T03:32:31.321Z,0.00
2018-08-30T03:33:37.739Z,0.00
2018-08-30T03:34:44.141Z,0.00
2018-08-30T03:35:50.536Z,0.00
2018-08-30T03:36:56.950Z,0.00
2018-08-30T03:38:03.356Z,0.00
2018-08-30T03:39:09.762Z,0.00
2018-08-30T03:40:16.190Z,0.00
2018-08-30T03:41:22.581Z,0.00
2018-08-30T03:42:28.978Z,0.00
2018-08-30T03:43:35.397Z,0.00
2018-08-30T03:44:41.809Z,0.00
2018-08-30T03:45:48.214Z,0.00
2018-08-30T03:46:54.621Z,0.00
2018-08-30T03:48:01.021Z,0.00
2018-08-30T03:49:07.446Z,0.00
2018-08-30T03:50:13.836Z,0.00
2018-08-30T03:51:20.236Z,0.00
2018-08-30T03:52:26.647Z,0.00
2018-08-30T03:53:33.040Z,0.00
2018-08-30T03:54:39.445Z,0.00
2018-08-30T03:55:45.863Z,0.00
2018-08-30T03:56:52.259Z,0.00
2018-08-30T03:57:58.662Z,0.00
2018-08-30T03:59:05.063Z,0.00
2018-08-30T04:00:12.482Z,0.00
2018-08-30T04:01:17.880Z,0.00
2018-08-30T04:02:24.280Z,0.00
2018-08-30T04:03:30.682Z,0.00
2018-08-30T04:04:37.087Z,0.00
2018-08-30T04:05:43.516Z,0.00
2018-08-30T04:06:49.880Z,0.00
2018-08-30T04:07:56.278Z,0.00
2018-08-30T04:09:02.672Z,0.00
2018-08-30T04:10:09.080Z,0.00
2018-08-30T04:11:15.479Z,0.00
2018-08-30T04:12:21.866Z,0.00
2018-08-30T04:13:28.306Z,0.00
2018-08-30T04:14:34.653Z,0.00
2018-08-30T04:15:41.049Z,0.00
2018-08-30T04:16:47.433Z,0.00
2018-08-30T04:17:53.826Z,0.00
2018-08-30T04:19:00.220Z,0.00
2018-08-30T04:20:06.595Z,0.00
2018-08-30T04:21:12.997Z,0.00
2018-08-30T04:22:19.369Z,0.00
2018-08-30T04:23:25.774Z,0.00
2018-08-30T04:24:32.149Z,0.00
2018-08-30T04:25:38.549Z,0.00
2018-08-30T04:26:44.924Z,0.00
2018-08-30T04:27:51.314Z,0.00
2018-08-30T04:28:57.688Z,0.00
2018-08-30T04:30:04.088Z,0.00
2018-08-30T04:31:10.484Z,0.00
2018-08-30T04:32:16.867Z,0.00
2018-08-30T04:33:23.260Z,0.00
2018-08-30T04:34:29.676Z,0.00
2018-08-30T04:35:36.028Z,0.00
2018-08-30T04:36:42.426Z,0.00
2018-08-30T04:37:48.807Z,0.00
2018-08-30T04:38:55.296Z,5.63
2018-08-30T04:40:01.596Z,0.00
2018-08-30T04:41:07.993Z,0.00
2018-08-30T04:42:14.935Z,5.63
2018-08-30T04:43:20.774Z,5.63
2018-08-30T04:44:27.290Z,5.63
2018-08-30T04:45:33.560Z,5.63
2018-08-30T04:46:39.960Z,5.63
2018-08-30T04:47:46.340Z,11.25
2018-08-30T04:48:52.753Z,11.25
2018-08-30T04:49:59.143Z,11.25
2018-08-30T04:51:05.546Z,11.25
2018-08-30T04:52:11.928Z,11.25
2018-08-30T04:53:18.357Z,16.88
2018-08-30T04:54:24.728Z,11.25
2018-08-30T04:55:31.121Z,11.25
2018-08-30T04:56:37.516Z,11.25
2018-08-30T04:57:43.916Z,16.88
2018-08-30T04:58:50.317Z,11.25
2018-08-30T04:59:56.703Z,11.25
2018-08-30T05:01:03.112Z,11.25
2018-08-30T05:02:09.502Z,11.25
2018-08-30T05:03:15.903Z,11.25
2018-08-30T05:04:22.310Z,11.25
2018-08-30T05:05:28.713Z,11.25
2018-08-30T05:06:35.109Z,16.88
2018-08-30T05:07:41.501Z,16.88
2018-08-30T05:08:47.907Z,11.25
2018-08-30T05:09:54.314Z,11.25
2018-08-30T05:11:00.706Z,11.25
2018-08-30T05:12:07.113Z,16.88
2018-08-30T05:13:13.513Z,16.88
2018-08-30T05:14:19.911Z,22.50
2018-08-30T05:15:26.321Z,16.88
2018-08-30T05:16:32.834Z,22.50
2018-08-30T05:17:39.125Z,22.50
2018-08-30T05:18:45.533Z,28.13
2018-08-30T05:19:51.920Z,28.13
2018-08-30T05:20:58.330Z,28.13
2018-08-30T05:22:04.731Z,28.13
2018-08-30T05:23:11.205Z,28.13
2018-08-30T05:24:18.021Z,33.75
2018-08-30T05:25:23.942Z,39.38
2018-08-30T05:26:30.349Z,45.00
2018-08-30T05:27:36.761Z,45.00
2018-08-30T05:28:43.663Z,39.38
2018-08-30T05:29:49.613Z,45.00
2018-08-30T05:30:55.964Z,56.25
2018-08-30T05:32:02.383Z,56.25
2018-08-30T05:33:08.781Z,61.88
2018-08-30T05:34:15.307Z,67.50
2018-08-30T05:35:21.601Z,78.75
2018-08-30T05:36:28.015Z,78.75
2018-08-30T05:37:34.422Z,78.75
2018-08-30T05:38:40.839Z,78.75
2018-08-30T05:39:47.232Z,84.38
2018-08-30T05:40:53.642Z,84.38
2018-08-30T05:42:00.058Z,95.63
2018-08-30T05:43:06.471Z,101.25
2018-08-30T05:44:12.876Z,101.25
2018-08-30T05:45:19.296Z,95.63
2018-08-30T05:46:25.706Z,95.63
2018-08-30T05:47:32.126Z,95.63
2018-08-30T05:48:38.536Z,95.63
2018-08-30T05:49:44.936Z,101.25
2018-08-30T05:50:51.355Z,101.25
2018-08-30T05:51:57.768Z,101.25
2018-08-30T05:53:04.186Z,101.25
2018-08-30T05:54:10.590Z,106.88
2018-08-30T05:55:17.001Z,106.88
2018-08-30T05:56:23.415Z,106.88
2018-08-30T05:57:30.337Z,118.13
2018-08-30T05:58:36.253Z,118.13
2018-08-30T05:59:42.653Z,118.13
2018-08-30T06:00:49.075Z,118.13
2018-08-30T06:01:55.492Z,123.75
2018-08-30T06:03:01.909Z,123.75
2018-08-30T06:04:08.332Z,129.38
2018-08-30T06:05:14.736Z,123.75
2018-08-30T06:06:21.160Z,123.75
2018-08-30T06:07:27.655Z,129.38
2018-08-30T06:08:33.984Z,135.00
2018-08-30T06:09:40.395Z,135.00
2018-08-30T06:10:46.822Z,129.38
2018-08-30T06:11:53.242Z,123.75
2018-08-30T06:12:59.667Z,135.00
2018-08-30T06:14:06.075Z,129.38
2018-08-30T06:15:12.485Z,129.38
2018-08-30T06:16:18.912Z,140.63
2018-08-30T06:17:25.332Z,140.63
2018-08-30T06:18:31.750Z,129.38
2018-08-30T06:19:38.663Z,123.75
2018-08-30T06:20:44.590Z,129.38
2018-08-30T06:21:51.017Z,129.38
2018-08-30T06:22:57.429Z,129.38
2018-08-30T06:24:03.834Z,129.38
2018-08-30T06:25:10.261Z,135.00
2018-08-30T06:26:16.684Z,146.25
2018-08-30T06:27:23.098Z,151.88
2018-08-30T06:28:29.518Z,151.88
2018-08-30T06:29:35.977Z,146.25
2018-08-30T06:30:42.361Z,146.25
2018-08-30T06:31:48.772Z,151.88
2018-08-30T06:32:55.226Z,157.50
2018-08-30T06:34:02.621Z,163.13
2018-08-30T06:35:08.072Z,157.50
2018-08-30T06:36:14.451Z,151.88
2018-08-30T06:37:20.892Z,140.63
2018-08-30T06:38:27.305Z,140.63
2018-08-30T06:39:33.718Z,140.63
2018-08-30T06:40:40.288Z,140.63
2018-08-30T06:41:46.575Z,140.63
2018-08-30T06:42:53.004Z,151.88
2018-08-30T06:43:59.419Z,146.25
2018-08-30T06:45:05.842Z,146.25
2018-08-30T06:46:12.266Z,146.25
2018-08-30T06:47:18.701Z,140.63
2018-08-30T06:48:25.126Z,140.63
2018-08-30T06:49:31.544Z,135.00
2018-08-30T06:50:37.974Z,140.63
2018-08-30T06:51:44.405Z,151.88
2018-08-30T06:52:50.839Z,157.50
2018-08-30T06:53:57.254Z,151.88
2018-08-30T06:55:03.929Z,151.88
2018-08-30T06:56:10.172Z,151.88
2018-08-30T06:57:16.544Z,157.50
2018-08-30T06:58:24.026Z,157.50
2018-08-30T06:59:29.432Z,163.13
2018-08-30T07:00:35.850Z,168.75
2018-08-30T07:01:42.600Z,174.38
2018-08-30T07:02:48.737Z,185.63
2018-08-30T07:03:56.652Z,191.25
2018-08-30T07:05:01.613Z,185.63
2018-08-30T07:06:08.057Z,196.88
2018-08-30T07:07:14.498Z,208.13
2018-08-30T07:08:20.945Z,202.50
2018-08-30T07:09:27.385Z,196.88
2018-08-30T07:10:34.325Z,191.25
2018-08-30T07:11:40.277Z,180.00
2018-08-30T07:12:46.736Z,168.75
2018-08-30T07:13:53.685Z,174.38
2018-08-30T07:14:59.693Z,196.88
2018-08-30T07:16:06.082Z,213.75
2018-08-30T07:17:12.521Z,225.00
2018-08-30T07:18:18.997Z,208.13
2018-08-30T07:19:25.443Z,202.50
2018-08-30T07:20:31.913Z,208.13
2018-08-30T07:21:38.345Z,202.50
2018-08-30T07:22:44.816Z,180.00
2018-08-30T07:23:51.275Z,180.00
2018-08-30T07:24:57.722Z,174.38
2018-08-30T07:26:04.171Z,180.00
2018-08-30T07:27:10.632Z,185.63
2018-08-30T07:28:17.097Z,191.25
2018-08-30T07:29:23.553Z,191.25
2018-08-30T07:30:30.016Z,208.13
2018-08-30T07:31:36.476Z,213.75
2018-08-30T07:32:42.959Z,230.63
2018-08-30T07:33:49.418Z,225.00
2018-08-30T07:34:56.030Z,219.38
2018-08-30T07:36:02.344Z,208.13
2018-08-30T07:37:09.823Z,185.63
2018-08-30T07:38:15.295Z,185.63
2018-08-30T07:39:21.782Z,191.25
2018-08-30T07:40:28.233Z,202.50
2018-08-30T07:41:34.709Z,213.75
2018-08-30T07:42:41.688Z,219.38
2018-08-30T07:43:47.662Z,219.38
2018-08-30T07:44:54.151Z,236.25
2018-08-30T07:46:01.120Z,241.88
2018-08-30T07:47:07.128Z,247.50
2018-08-30T07:48:13.580Z,281.25
2018-08-30T07:49:20.051Z,303.75
2018-08-30T07:50:26.540Z,309.38
2018-08-30T07:51:33.020Z,326.25
2018-08-30T07:52:39.518Z,320.63
2018-08-30T07:53:46.027Z,331.88
2018-08-30T07:54:52.516Z,303.75
2018-08-30T07:55:59.020Z,270.00
2018-08-30T07:57:05.521Z,264.38
2018-08-30T07:58:12.029Z,264.38
2018-08-30T07:59:18.515Z,258.75
2018-08-30T08:00:25.033Z,253.13
2018-08-30T08:01:31.535Z,253.13
2018-08-30T08:02:38.032Z,247.50
2018-08-30T08:03:44.544Z,253.13
2018-08-30T08:04:51.026Z,258.75
2018-08-30T08:05:57.557Z,270.00
2018-08-30T08:07:04.040Z,286.88
2018-08-30T08:08:10.558Z,298.13
2018-08-30T08:09:17.056Z,315.00
2018-08-30T08:10:23.568Z,337.50
2018-08-30T08:11:30.072Z,343.13
2018-08-30T08:12:36.616Z,326.25
2018-08-30T08:13:43.134Z,331.88
2018-08-30T08:14:50.015Z,331.88
2018-08-30T08:15:56.137Z,343.13
2018-08-30T08:17:03.655Z,348.75
2018-08-30T08:18:09.288Z,354.38
2018-08-30T08:19:15.771Z,354.38
2018-08-30T08:20:22.234Z,360.00
2018-08-30T08:21:28.764Z,405.00
2018-08-30T08:22:35.295Z,438.75
2018-08-30T08:23:41.856Z,489.38
2018-08-30T08:24:48.398Z,506.25
2018-08-30T08:25:54.950Z,506.25
2018-08-30T08:27:01.524Z,601.88
2018-08-30T08:28:08.078Z,433.13
2018-08-30T08:29:14.672Z,455.63
2018-08-30T08:30:21.256Z,466.88
2018-08-30T08:31:28.344Z,433.13
2018-08-30T08:32:34.444Z,405.00
2018-08-30T08:33:41.051Z,388.13
2018-08-30T08:34:47.643Z,455.63
2018-08-30T08:35:54.247Z,478.13
2018-08-30T08:37:00.865Z,506.25
2018-08-30T08:38:07.483Z,528.75
2018-08-30T08:39:14.103Z,489.38
2018-08-30T08:40:20.729Z,528.75
2018-08-30T08:41:27.372Z,562.50
2018-08-30T08:42:34.001Z,528.75
2018-08-30T08:43:40.651Z,607.50
2018-08-30T08:44:47.333Z,590.63
2018-08-30T08:45:53.966Z,596.25
2018-08-30T08:47:00.632Z,579.38
2018-08-30T08:48:07.300Z,517.50
2018-08-30T08:49:13.970Z,461.25
2018-08-30T08:50:20.635Z,461.25
2018-08-30T08:51:27.281Z,511.88
2018-08-30T08:52:33.951Z,585.00
2018-08-30T08:53:40.643Z,613.13
2018-08-30T08:54:47.516Z,663.75
2018-08-30T08:55:53.963Z,669.38
2018-08-30T08:57:00.657Z,669.38
2018-08-30T08:58:07.331Z,641.25
2018-08-30T08:59:14.076Z,641.25
2018-08-30T09:00:20.704Z,641.25
2018-08-30T09:01:27.456Z,624.38
2018-08-30T09:02:34.088Z,618.75
2018-08-30T09:03:40.789Z,630.00
2018-08-30T09:04:47.590Z,607.50
2018-08-30T09:05:54.165Z,556.88
2018-08-30T09:07:00.919Z,528.75
2018-08-30T09:08:07.559Z,511.88
2018-08-30T09:09:14.245Z,495.00
2018-08-30T09:10:20.922Z,506.25
2018-08-30T09:11:27.607Z,540.00
2018-08-30T09:12:34.276Z,579.38
2018-08-30T09:13:40.960Z,585.00
2018-08-30T09:14:47.683Z,585.00
2018-08-30T09:15:54.319Z,573.75
2018-08-30T09:17:01.014Z,585.00
2018-08-30T09:18:07.710Z,624.38
2018-08-30T09:19:14.412Z,658.13
2018-08-30T09:20:21.106Z,652.50
2018-08-30T09:21:27.812Z,646.88
2018-08-30T09:22:34.531Z,590.63
2018-08-30T09:23:41.238Z,568.13
2018-08-30T09:24:47.970Z,573.75
2018-08-30T09:25:54.662Z,590.63
2018-08-30T09:27:01.405Z,596.25
2018-08-30T09:28:08.099Z,635.63
2018-08-30T09:29:14.826Z,630.00
2018-08-30T09:30:21.542Z,652.50
2018-08-30T09:31:28.287Z,607.50
2018-08-30T09:32:35.016Z,585.00
2018-08-30T09:33:41.752Z,590.63
2018-08-30T09:34:48.500Z,607.50
2018-08-30T09:35:55.726Z,613.13
2018-08-30T09:37:02.962Z,635.63
2018-08-30T09:38:08.717Z,658.13
2018-08-30T09:39:15.468Z,675.00
2018-08-30T09:40:22.227Z,669.38
2018-08-30T09:41:28.969Z,691.88
2018-08-30T09:42:35.759Z,697.50
2018-08-30T09:43:42.565Z,714.38
2018-08-30T09:44:51.205Z,691.88
2018-08-30T09:45:56.543Z,669.38
2018-08-30T09:47:02.854Z,663.75
2018-08-30T09:48:09.653Z,652.50
2018-08-30T09:49:16.497Z,641.25
2018-08-30T09:50:23.230Z,635.63
2018-08-30T09:51:30.000Z,635.63
2018-08-30T09:52:36.787Z,630.00
2018-08-30T09:53:44.027Z,630.00
2018-08-30T09:54:50.415Z,641.25
2018-08-30T09:55:57.129Z,652.50
2018-08-30T09:57:04.105Z,669.38
2018-08-30T09:58:10.704Z,675.00
2018-08-30T09:59:17.486Z,675.00
2018-08-30T10:00:24.244Z,691.88
2018-08-30T10:01:31.047Z,720.00
2018-08-30T10:02:37.825Z,736.88
2018-08-30T10:03:45.161Z,742.50
2018-08-30T10:04:52.390Z,742.50
2018-08-30T10:05:58.198Z,714.38
2018-08-30T10:07:05.012Z,686.25
2018-08-30T10:08:11.809Z,663.75
2018-08-30T10:09:19.098Z,635.63
2018-08-30T10:10:25.391Z,630.00
2018-08-30T10:11:32.253Z,630.00
2018-08-30T10:12:38.965Z,624.38
2018-08-30T10:13:45.740Z,624.38
2018-08-30T10:15:59.393Z,601.88
2018-08-30T10:17:06.060Z,601.88
2018-08-30T10:18:12.824Z,618.75
2018-08-30T10:19:19.596Z,624.38
2018-08-30T10:20:26.357Z,630.00
2018-08-30T10:21:33.161Z,630.00
2018-08-30T10:22:39.881Z,624.38
2018-08-30T10:23:46.631Z,607.50
2018-08-30T10:24:55.119Z,613.13
2018-08-30T10:27:06.887Z,590.63
2018-08-30T10:28:13.645Z,585.00
2018-08-30T10:29:20.418Z,568.13
2018-08-30T10:30:27.136Z,551.25
2018-08-30T10:31:33.899Z,545.63
2018-08-30T10:32:40.626Z,551.25
2018-08-30T10:33:47.369Z,573.75
2018-08-30T10:34:54.108Z,579.38
2018-08-30T10:36:01.326Z,585.00
2018-08-30T10:37:07.617Z,585.00
2018-08-30T10:38:14.295Z,579.38
2018-08-30T10:39:21.027Z,579.38
2018-08-30T10:40:28.280Z,590.63
2018-08-30T10:41:35.440Z,601.88
2018-08-30T10:42:41.210Z,613.13
2018-08-30T10:43:47.950Z,618.75
2018-08-30T10:44:55.188Z,630.00
2018-08-30T10:46:01.892Z,646.88
2018-08-30T10:47:08.651Z,675.00
2018-08-30T10:48:14.894Z,686.25
2018-08-30T10:49:21.686Z,680.63
2018-08-30T10:50:28.378Z,658.13
2018-08-30T10:51:35.617Z,663.75
2018-08-30T10:52:41.867Z,686.25
2018-08-30T10:53:48.628Z,720.00
2018-08-30T10:54:55.946Z,748.13
2018-08-30T10:56:02.144Z,759.38
2018-08-30T10:57:09.951Z,748.13
2018-08-30T10:58:15.687Z,720.00
2018-08-30T10:59:22.439Z,691.88
2018-08-30T11:00:29.225Z,675.00
2018-08-30T11:01:35.978Z,652.50
2018-08-30T11:02:42.741Z,641.25
2018-08-30T11:03:50.039Z,641.25
2018-08-30T11:04:56.272Z,624.38
2018-08-30T11:06:03.030Z,618.75
2018-08-30T11:07:10.294Z,618.75
2018-08-30T11:08:16.558Z,630.00
2018-08-30T11:09:24.325Z,641.25
2018-08-30T11:10:30.095Z,646.88
2018-08-30T11:11:36.859Z,635.63
2018-08-30T11:12:44.696Z,635.63
2018-08-30T11:13:50.401Z,641.25
2018-08-30T11:15:03.904Z,641.25
2018-08-30T11:16:12.317Z,663.75
2018-08-30T11:17:19.114Z,646.88
2018-08-30T11:18:26.444Z,635.63
2018-08-30T11:19:32.841Z,646.88
2018-08-30T11:20:39.503Z,680.63
2018-08-30T11:21:46.308Z,736.88
2018-08-30T11:22:53.101Z,759.38
2018-08-30T11:23:59.912Z,753.75
2018-08-30T11:25:06.752Z,787.50
2018-08-30T11:26:13.596Z,691.88
2018-08-30T11:27:20.465Z,658.13
2018-08-30T11:28:27.321Z,630.00
2018-08-30T11:29:34.303Z,658.13
2018-08-30T11:30:41.024Z,708.75
2018-08-30T11:31:47.876Z,883.13
2018-08-30T11:32:55.274Z,1029.38
2018-08-30T11:34:01.699Z,838.13
2018-08-30T11:35:08.669Z,922.50
2018-08-30T11:36:15.662Z,697.50
2018-08-30T11:37:22.630Z,641.25
2018-08-30T11:38:30.084Z,630.00
2018-08-30T11:39:36.529Z,579.38
2018-08-30T11:40:43.463Z,551.25
2018-08-30T11:41:50.504Z,585.00
2018-08-30T11:42:57.271Z,641.25
2018-08-30T11:44:04.223Z,686.25
2018-08-30T11:45:11.535Z,725.63
2018-08-30T11:46:17.937Z,748.13
2018-08-30T11:47:24.862Z,753.75
2018-08-30T11:48:31.800Z,736.88
2018-08-30T11:49:38.702Z,714.38
2018-08-30T11:50:45.655Z,630.00
2018-08-30T11:51:52.561Z,607.50
2018-08-30T11:53:00.474Z,635.63
2018-08-30T11:54:06.439Z,663.75
2018-08-30T11:55:13.778Z,691.88
2018-08-30T11:56:20.175Z,748.13
2018-08-30T11:57:27.051Z,787.50
2018-08-30T11:58:33.941Z,776.25
2018-08-30T11:59:40.833Z,770.63
2018-08-30T12:00:48.281Z,770.63
2018-08-30T12:01:54.605Z,883.13
2018-08-30T12:03:01.534Z,781.88
2018-08-30T12:04:08.609Z,759.38
2018-08-30T12:05:15.358Z,765.00
2018-08-30T12:06:22.260Z,798.75
2018-08-30T12:07:29.184Z,798.75
2018-08-30T12:08:36.117Z,905.63
2018-08-30T12:09:43.568Z,753.75
2018-08-30T12:10:50.127Z,888.75
2018-08-30T12:11:57.054Z,877.50
2018-08-30T12:13:04.100Z,826.88
2018-08-30T12:14:11.696Z,781.88
2018-08-30T12:15:18.290Z,562.50
2018-08-30T12:16:25.373Z,562.50
2018-08-30T12:17:32.448Z,528.75
2018-08-30T12:18:39.501Z,556.88
2018-08-30T12:19:47.007Z,596.25
2018-08-30T12:20:53.571Z,804.38
2018-08-30T12:22:00.537Z,939.38
2018-08-30T12:23:07.575Z,855.00
2018-08-30T12:24:14.636Z,759.38
2018-08-30T12:25:21.698Z,703.13
2018-08-30T12:26:28.733Z,686.25
2018-08-30T12:27:35.750Z,675.00
2018-08-30T12:28:43.081Z,669.38
2018-08-30T12:29:49.731Z,680.63
2018-08-30T12:30:57.230Z,691.88
2018-08-30T12:32:03.739Z,652.50
2018-08-30T12:33:10.657Z,613.13
2018-08-30T12:34:17.631Z,607.50
2018-08-30T12:35:25.056Z,630.00
2018-08-30T12:36:31.478Z,658.13
2018-08-30T12:37:38.425Z,703.13
2018-08-30T12:38:45.913Z,765.00
2018-08-30T12:39:52.383Z,871.88
2018-08-30T12:40:59.286Z,916.88
2018-08-30T12:42:06.211Z,894.38
2018-08-30T12:43:13.234Z,860.63
2018-08-30T12:44:20.701Z,838.13
2018-08-30T12:45:27.139Z,826.88
2018-08-30T12:46:34.137Z,843.75
2018-08-30T12:47:41.118Z,866.25
2018-08-30T12:48:48.029Z,877.50
2018-08-30T12:49:54.962Z,888.75
2018-08-30T12:51:02.000Z,877.50
2018-08-30T12:52:09.498Z,871.88
2018-08-30T12:53:15.965Z,866.25
2018-08-30T12:54:23.480Z,826.88
2018-08-30T12:55:29.980Z,826.88
2018-08-30T12:56:36.929Z,826.88
2018-08-30T12:57:43.855Z,821.25
2018-08-30T12:58:51.372Z,815.63
2018-08-30T12:59:57.818Z,793.13
2018-08-30T13:01:04.767Z,765.00
2018-08-30T13:02:12.141Z,731.25
2018-08-30T13:03:19.363Z,697.50
2018-08-30T13:04:25.752Z,646.88
2018-08-30T13:05:32.738Z,630.00
2018-08-30T13:06:39.535Z,585.00
2018-08-30T13:07:46.589Z,545.63
2018-08-30T13:08:53.484Z,523.13
2018-08-30T13:10:00.554Z,517.50
2018-08-30T13:11:07.319Z,511.88
2018-08-30T13:12:14.792Z,517.50
2018-08-30T13:13:21.186Z,528.75
2018-08-30T13:14:28.098Z,545.63
2018-08-30T13:15:35.418Z,568.13
2018-08-30T13:16:41.734Z,585.00
2018-08-30T13:17:48.571Z,596.25
2018-08-30T13:18:55.650Z,601.88
2018-08-30T13:20:02.720Z,601.88
2018-08-30T13:21:09.381Z,562.50
2018-08-30T13:22:16.706Z,534.38
2018-08-30T13:23:23.219Z,500.63
2018-08-30T13:24:30.039Z,483.75
2018-08-30T13:25:37.563Z,472.50
2018-08-30T13:26:43.862Z,455.63
2018-08-30T13:27:50.680Z,444.38
2018-08-30T13:28:57.583Z,421.88
2018-08-30T13:30:04.727Z,399.38
2018-08-30T13:31:11.208Z,382.50
2018-08-30T13:32:18.233Z,365.63
2018-08-30T13:33:26.215Z,348.75
2018-08-30T13:34:32.001Z,348.75
2018-08-30T13:35:39.631Z,354.38
2018-08-30T13:36:45.625Z,365.63
2018-08-30T13:37:52.443Z,382.50
2018-08-30T13:38:59.830Z,399.38
2018-08-30T13:40:06.166Z,421.88
2018-08-30T13:41:12.964Z,461.25
2018-08-30T13:42:19.538Z,511.88
2018-08-30T13:43:26.072Z,562.50
2018-08-30T13:44:33.080Z,624.38
2018-08-30T13:45:39.831Z,703.13
2018-08-30T13:46:46.550Z,961.88
2018-08-30T13:47:53.239Z,838.13
2018-08-30T13:49:00.294Z,804.38
2018-08-30T13:50:07.101Z,759.38
2018-08-30T13:51:13.769Z,736.88
2018-08-30T13:52:21.151Z,720.00
2018-08-30T13:53:27.640Z,765.00
2018-08-30T13:54:34.812Z,725.63
2018-08-30T13:55:41.531Z,714.38
2018-08-30T13:56:48.669Z,691.88
2018-08-30T13:57:55.585Z,691.88
2018-08-30T13:59:02.574Z,708.75
2018-08-30T14:00:09.851Z,697.50
2018-08-30T14:01:16.495Z,686.25
2018-08-30T14:02:22.959Z,697.50
2018-08-30T14:03:29.740Z,720.00
2018-08-30T14:04:36.679Z,708.75
2018-08-30T14:05:43.683Z,680.63
2018-08-30T14:06:50.493Z,601.88
2018-08-30T14:07:57.510Z,568.13
2018-08-30T14:09:04.236Z,551.25
2018-08-30T14:10:11.344Z,551.25
2018-08-30T14:11:18.093Z,556.88
2018-08-30T14:12:25.322Z,551.25
2018-08-30T14:13:32.412Z,562.50